Frye Island, Maine
Current Conditions -  °F | °C
As of 12:15 PM on Thursday 18 Dec 2014 (Local Time) from KLEW Reporting Station
Overcast Overcast  
Wind Chill: 29°   Ceiling: 6000
Heat Index: 37°   Visibility: 10mi
Dew Point: 27°   Wind: 15mph
Humidity: 65%   Direction: 300°WNW
Pressure: 29.67"   Gusts: NA
Location:  43.9379°N, 70.4425°W
Report Text: KLEW 181715Z AUTO 30013KT 10SM SCT031 BKN060 OVC070 03/M03 A2967 RMK AO1
Loading
Personal Weather Stations






























Interactive Weather Map New forecast layout! Learn more

10-Day Weather Forecast

Advertisements
Track Severe Weather on mobile